Time;durP1;ratioP1;P1;durP2;ratioP2;P2;SDS_P1;SDS_P2;PMS_P1;PMS_P2;Temp;Humidity;BMP_temperature;BMP_pressure;BME280_temperature;BME280_humidity;BME280_pressure;Samples;Min_cycle;Max_cycle;Signal;HPM_P1;HPM_P2
2022/06/07 00:01:36;;;;;;;32.38;21.05;;;;;;;11.45;100.00;98861.97;4792891;29;20455;-88
2022/06/07 00:04:03;;;;;;;31.95;21.95;;;;;;;11.43;100.00;98869.25;4807653;29;20038;-87
2022/06/07 00:06:30;;;;;;;34.17;21.35;;;;;;;11.34;100.00;98854.69;4824295;29;20030;-88
2022/06/07 00:08:56;;;;;;;36.08;21.85;;;;;;;11.35;100.00;98856.28;4806897;29;20087;-88
2022/06/07 00:11:22;;;;;;;29.98;20.55;;;;;;;11.33;100.00;98859.16;4824094;29;20031;-88
2022/06/07 00:13:48;;;;;;;26.40;18.90;;;;;;;11.34;100.00;98863.38;4807631;29;20060;-88
2022/06/07 00:16:16;;;;;;;40.58;23.50;;;;;;;11.34;100.00;98845.00;4809174;29;20042;-88
2022/06/07 00:18:42;;;;;;;48.13;27.50;;;;;;;11.38;100.00;98835.69;4791059;29;20035;-87
2022/06/07 00:21:08;;;;;;;45.42;26.58;;;;;;;11.58;100.00;98853.22;4818583;29;20131;-87
2022/06/07 00:23:34;;;;;;;47.10;28.58;;;;;;;11.57;100.00;98836.63;4790480;29;20073;-87
2022/06/07 00:26:01;;;;;;;43.97;27.48;;;;;;;11.69;100.00;98842.09;4808931;29;20681;-87
2022/06/07 00:28:28;;;;;;;45.63;28.27;;;;;;;11.76;100.00;98849.94;4808877;29;20046;-86
2022/06/07 00:30:54;;;;;;;48.22;30.05;;;;;;;11.71;100.00;98845.31;4825076;29;20505;-90
2022/06/07 00:33:22;;;;;;;53.35;28.25;;;;;;;11.78;100.00;98849.75;4809258;29;20042;-88
2022/06/07 00:35:48;;;;;;;49.00;28.80;;;;;;;11.75;100.00;98842.28;4808340;29;20035;-87
2022/06/07 00:38:14;;;;;;;50.92;28.83;;;;;;;11.69;100.00;98849.97;4792242;29;20054;-86
2022/06/07 00:40:42;;;;;;;54.42;29.45;;;;;;;11.65;100.00;98837.44;4793629;29;20038;-87
2022/06/07 00:43:08;;;;;;;46.65;28.27;;;;;;;11.69;100.00;98854.44;4792799;29;20056;-88
2022/06/07 00:45:34;;;;;;;51.00;28.40;;;;;;;11.58;100.00;98840.88;4792399;29;20043;-87
2022/06/07 00:48:00;;;;;;;57.15;31.08;;;;;;;11.56;100.00;98842.91;4790286;29;20047;-86
2022/06/07 00:50:38;;;;;;;48.70;28.15;;;;;;;11.72;100.00;98851.38;4805589;29;20089;-87
2022/06/07 00:53:04;;;;;;;54.05;29.20;;;;;;;11.55;100.00;98837.88;4801504;29;20086;-88
2022/06/07 00:55:30;;;;;;;49.92;28.15;;;;;;;11.68;100.00;98845.72;4792735;29;20180;-89
2022/06/07 00:57:57;;;;;;;46.30;28.13;;;;;;;11.60;100.00;98822.28;4793133;29;20034;-88
2022/06/07 01:00:23;;;;;;;51.63;29.02;;;;;;;11.46;100.00;98826.78;4808340;29;20034;-88
2022/06/07 01:02:52;;;;;;;48.47;29.15;;;;;;;11.62;100.00;98846.53;4794650;29;20038;-88
2022/06/07 01:05:18;;;;;;;53.47;30.30;;;;;;;11.48;100.00;98835.25;4793755;29;20091;-89
2022/06/07 01:10:45;;;;;;;51.42;29.50;;;;;;;11.66;100.00;98834.59;4812036;29;20034;-86
2022/06/07 01:13:13;;;;;;;49.95;29.67;;;;;;;11.65;100.00;98829.56;4804043;29;20094;-89
2022/06/07 01:15:41;;;;;;;54.10;31.85;;;;;;;11.72;100.00;98830.34;4793146;29;20506;-92
2022/06/07 01:18:13;;;;;;;54.25;30.38;;;;;;;11.62;100.00;98820.25;4809480;29;20038;-87
2022/06/07 01:20:40;;;;;;;54.38;31.35;;;;;;;11.67;100.00;98843.31;4794558;29;20034;-87
2022/06/07 01:23:07;;;;;;;54.97;30.63;;;;;;;11.64;100.00;98828.75;4793582;29;20090;-88
2022/06/07 01:25:33;;;;;;;48.63;30.38;;;;;;;11.62;100.00;98820.25;4823619;29;20042;-88
2022/06/07 01:28:03;;;;;;;55.65;31.25;;;;;;;11.49;100.00;98821.09;4808600;29;20050;-90
2022/06/07 01:30:32;;;;;;;58.97;31.48;;;;;;;11.65;100.00;98813.78;4824449;29;20493;-88
2022/06/07 01:33:00;;;;;;;55.78;28.42;;;;;;;11.72;100.00;98827.72;4807937;29;20034;-86
2022/06/07 01:35:27;;;;;;;50.00;30.23;;;;;;;11.72;100.00;98822.44;4808021;29;20382;-85
2022/06/07 01:37:53;;;;;;;52.38;28.90;;;;;;;11.72;100.00;98822.44;4824395;29;20038;-87
2022/06/07 01:43:06;;;;;;;44.67;26.48;;;;;;;11.84;100.00;98822.63;4824456;29;20125;-88
2022/06/07 01:45:33;;;;;;;46.05;26.30;;;;;;;12.01;100.00;98825.63;4792977;29;20034;-90
2022/06/07 01:48:00;;;;;;;39.08;24.75;;;;;;;12.02;100.00;98824.63;4808110;29;20042;-86
2022/06/07 01:50:28;;;;;;;44.22;26.08;;;;;;;11.85;100.00;98808.44;4808202;29;20039;-88
2022/06/07 01:52:54;;;;;;;41.70;26.08;;;;;;;11.68;100.00;98813.38;4804935;29;20481;-90
2022/06/07 01:55:20;;;;;;;41.20;25.30;;;;;;;11.82;100.00;98809.69;4806056;29;20520;-88
2022/06/07 01:57:45;;;;;;;41.20;25.75;;;;;;;11.74;100.00;98812.53;4820299;29;20035;-88
2022/06/07 02:00:12;;;;;;;42.42;25.40;;;;;;;11.81;100.00;98818.59;4804944;29;20042;-88
2022/06/07 02:02:37;;;;;;;38.58;24.85;;;;;;;11.76;100.00;98818.38;4806025;29;20517;-86
2022/06/07 02:05:03;;;;;;;43.38;25.67;;;;;;;11.71;100.00;98807.69;4808538;29;20046;-89
2022/06/07 02:07:30;;;;;;;39.45;24.00;;;;;;;11.71;100.00;98820.84;4808424;29;20095;-86
2022/06/07 02:09:58;;;;;;;33.83;21.55;;;;;;;11.64;100.00;98820.06;4808489;29;20050;-87
2022/06/07 02:12:24;;;;;;;34.67;22.17;;;;;;;11.52;100.00;98804.91;4809575;29;20375;-87
2022/06/07 02:14:55;;;;;;;32.60;20.52;;;;;;;11.37;100.00;98807.78;4808114;29;20156;-85
2022/06/07 02:17:21;;;;;;;30.35;19.48;;;;;;;11.33;100.00;98813.66;4825300;29;20485;-86
2022/06/07 02:19:52;;;;;;;28.35;19.20;;;;;;;11.26;100.00;98808.41;4810653;29;20078;-87
2022/06/07 02:22:19;;;;;;;32.30;20.58;;;;;;;11.24;100.00;98808.63;4808748;29;20062;-88
2022/06/07 02:24:49;;;;;;;31.95;20.25;;;;;;;11.07;100.00;98808.22;4827174;29;20557;-87
2022/06/07 02:27:19;;;;;;;31.23;20.10;;;;;;;11.07;100.00;98815.31;4807814;29;20487;-88
2022/06/07 02:29:51;;;;;;;34.37;21.40;;;;;;;10.93;100.00;98796.91;4808101;29;20034;-88
2022/06/07 02:32:22;;;;;;;31.75;20.02;;;;;;;11.05;100.00;98802.38;4809556;29;20070;-88
2022/06/07 02:34:53;;;;;;;35.17;21.38;;;;;;;11.12;100.00;98815.50;4824058;29;20125;-87
2022/06/07 02:37:21;;;;;;;37.35;21.02;;;;;;;11.10;100.00;98807.00;4792781;29;20502;-89
2022/06/07 02:39:46;;;;;;;33.30;21.35;;;;;;;10.98;100.00;98805.00;4808166;29;20035;-88
2022/06/07 02:42:16;;;;;;;38.45;21.45;;;;;;;11.06;100.00;98800.56;4807881;29;20034;-88
2022/06/07 02:44:43;;;;;;;35.45;22.00;;;;;;;10.94;100.00;98792.50;4823992;29;20034;-87
2022/06/07 02:47:08;;;;;;;35.78;21.60;;;;;;;10.98;100.00;98796.31;4793199;29;20035;-89
2022/06/07 02:49:34;;;;;;;33.13;20.85;;;;;;;11.06;100.00;98801.34;4809032;29;20043;-90
2022/06/07 02:52:00;;;;;;;34.47;21.02;;;;;;;11.18;100.00;98806.78;4809763;29;20464;-88
2022/06/07 02:54:26;;;;;;;31.73;20.80;;;;;;;11.04;100.00;98805.22;4821293;29;20117;-87
2022/06/07 02:56:52;;;;;;;34.33;19.60;;;;;;;11.00;100.00;98792.50;4794198;29;20035;-88
2022/06/07 02:59:17;;;;;;;31.60;20.17;;;;;;;11.09;100.00;98795.69;4826930;29;20038;-89
2022/06/07 03:01:43;;;;;;;27.38;18.90;;;;;;;11.18;100.00;98798.91;4810473;29;20045;-88
2022/06/07 03:04:08;;;;;;;28.60;18.40;;;;;;;11.06;100.00;98779.53;4810868;29;20045;-86
2022/06/07 03:06:35;;;;;;;26.67;16.67;;;;;;;11.06;100.00;98790.84;4795935;29;20045;-88
2022/06/07 03:09:01;;;;;;;32.10;18.25;;;;;;;11.04;100.00;98787.63;4795317;29;20050;-89
2022/06/07 03:11:29;;;;;;;31.95;19.83;;;;;;;10.92;100.00;98782.19;4807442;29;20491;-89
2022/06/07 03:13:54;;;;;;;29.15;18.73;;;;;;;10.99;100.00;98777.72;4809785;29;20054;-88
2022/06/07 03:16:20;;;;;;;30.17;18.25;;;;;;;11.11;100.00;98787.63;4794860;29;20091;-88
2022/06/07 03:18:45;;;;;;;23.38;16.77;;;;;;;11.14;100.00;98779.31;4810933;29;20401;-88
2022/06/07 03:21:11;;;;;;;25.05;16.23;;;;;;;11.06;100.00;98784.81;4795701;29;20030;-87
2022/06/07 03:23:39;;;;;;;25.58;16.35;;;;;;;11.11;100.00;98785.81;4796377;29;20121;-86
2022/06/07 03:26:07;;;;;;;23.25;15.80;;;;;;;11.10;100.00;98786.00;4811754;29;20090;-88
2022/06/07 03:28:33;;;;;;;26.42;16.83;;;;;;;11.08;100.00;98788.03;4796807;29;20125;-88
2022/06/07 03:31:09;;;;;;;21.35;15.63;;;;;;;11.08;100.00;98788.03;4796329;29;20052;-88
2022/06/07 03:33:35;;;;;;;22.88;15.93;;;;;;;11.02;100.00;98779.13;4795371;29;20043;-88
2022/06/07 03:36:06;;;;;;;23.52;15.82;;;;;;;11.01;100.00;98769.66;4810026;29;20079;-89
2022/06/07 03:38:32;;;;;;;21.80;14.68;;;;;;;11.08;100.00;98778.31;4810335;29;20061;-88
2022/06/07 03:40:58;;;;;;;27.00;15.60;;;;;;;11.06;100.00;98782.97;4795134;29;20084;-88
2022/06/07 03:43:23;;;;;;;24.23;17.02;;;;;;;11.00;100.00;98770.66;4810097;29;20046;-89
2022/06/07 03:45:49;;;;;;;21.42;15.25;;;;;;;11.13;100.00;98775.91;4826455;29;20034;-87
2022/06/07 03:48:15;;;;;;;24.15;15.48;;;;;;;11.13;100.00;98765.41;4810328;29;20139;-88
2022/06/07 03:50:41;;;;;;;24.20;15.80;;;;;;;11.20;100.00;98770.66;4809460;29;20121;-90
2022/06/07 03:53:07;;;;;;;28.00;16.80;;;;;;;11.19;100.00;98795.28;4794764;29;20031;-88
2022/06/07 03:55:32;;;;;;;27.67;16.05;;;;;;;11.07;100.00;98770.66;4794654;29;20034;-86
2022/06/07 03:57:58;;;;;;;26.52;16.13;;;;;;;11.16;100.00;98779.13;4825916;29;20046;-85
2022/06/07 04:00:25;;;;;;;22.63;16.27;;;;;;;11.02;100.00;98783.59;4825851;29;20041;-87
2022/06/07 04:02:51;;;;;;;36.30;17.08;;;;;;;10.95;100.00;98791.47;4809649;29;20125;-87
2022/06/07 04:05:18;;;;;;;25.77;17.23;;;;;;;10.93;100.00;98789.03;4809496;29;20459;-88
2022/06/07 04:10:28;;;;;;;25.80;17.60;;;;;;;11.07;100.00;98789.03;4826416;29;20073;-88
2022/06/07 04:13:03;;;;;;;26.80;17.42;;;;;;;10.89;100.00;98779.97;4810927;29;20030;-86
2022/06/07 04:15:29;;;;;;;26.02;17.25;;;;;;;11.02;100.00;98779.13;4825575;29;20050;-86
2022/06/07 04:17:55;;;;;;;25.95;16.65;;;;;;;11.02;100.00;98789.66;4825589;29;20393;-89
2022/06/07 04:20:21;;;;;;;26.83;17.02;;;;;;;11.06;100.00;98793.47;4809176;29;20034;-85
2022/06/07 04:22:47;;;;;;;24.98;17.25;;;;;;;11.03;100.00;98795.72;4825849;29;20049;-86
2022/06/07 04:25:13;;;;;;;26.98;16.55;;;;;;;11.13;100.00;98796.09;4825724;29;20423;-88
2022/06/07 04:27:39;;;;;;;29.00;17.58;;;;;;;11.00;100.00;98789.88;4825304;29;20446;-89
2022/06/07 04:30:05;;;;;;;23.33;15.88;;;;;;;11.00;100.00;98796.91;4808380;29;20125;-88
2022/06/07 04:32:32;;;;;;;25.55;16.80;;;;;;;10.95;100.00;98791.47;4807493;29;20494;-86
2022/06/07 04:35:00;;;;;;;21.88;15.90;;;;;;;10.93;100.00;98796.13;4805918;29;20065;-87
2022/06/07 04:37:26;;;;;;;22.33;15.60;;;;;;;11.10;100.00;98801.75;4805593;29;20035;-88
2022/06/07 04:39:51;;;;;;;23.48;16.30;;;;;;;11.16;100.00;98798.31;4821952;29;20038;-91
2022/06/07 04:42:17;;;;;;;26.73;17.05;;;;;;;11.25;100.00;98799.72;4825804;29;20038;-87
2022/06/07 04:44:42;;;;;;;21.23;14.25;;;;;;;11.37;100.00;98802.53;4792209;29;20058;-87
2022/06/07 04:47:08;;;;;;;21.30;14.90;;;;;;;11.45;100.00;98791.00;4825115;29;20118;-88
2022/06/07 04:49:35;;;;;;;22.15;15.25;;;;;;;11.48;100.00;98782.69;4792168;29;20034;-89
2022/06/07 04:52:01;;;;;;;18.98;14.07;;;;;;;11.45;100.00;98788.38;4808272;29;20847;-89
2022/06/07 04:54:28;;;;;;;25.50;15.23;;;;;;;11.58;100.00;98798.03;4806870;29;20049;-90
2022/06/07 04:56:55;;;;;;;19.90;14.52;;;;;;;11.58;100.00;98800.66;4807368;29;20366;-89
2022/06/07 04:59:21;;;;;;;21.38;15.27;;;;;;;11.49;100.00;98786.94;4805817;29;20039;-88
2022/06/07 05:01:47;;;;;;;19.77;15.10;;;;;;;11.56;100.00;98795.59;4793073;29;20042;-88
2022/06/07 05:04:13;;;;;;;20.77;14.35;;;;;;;11.76;100.00;98794.72;4793041;29;20401;-90
2022/06/07 05:06:41;;;;;;;21.50;14.50;;;;;;;11.91;100.00;98796.28;4793584;29;20066;-88
2022/06/07 05:09:13;;;;;;;23.52;15.57;;;;;;;11.81;100.00;98807.25;4808833;29;20038;-87
2022/06/07 05:11:39;;;;;;;22.92;14.13;;;;;;;11.74;100.00;98796.75;4808753;29;20129;-87
2022/06/07 05:14:06;;;;;;;22.45;15.88;;;;;;;11.80;100.00;98806.47;4808575;29;20129;-89
2022/06/07 05:16:36;;;;;;;21.85;15.60;;;;;;;11.76;100.00;98794.72;4805106;29;20035;-87
2022/06/07 05:19:02;;;;;;;24.30;15.73;;;;;;;11.77;100.00;98793.72;4790340;29;20375;-86
2022/06/07 05:21:28;;;;;;;23.50;15.57;;;;;;;11.85;100.00;98798.75;4790127;29;20084;-88
2022/06/07 05:23:54;;;;;;;22.58;15.45;;;;;;;11.81;100.00;98780.97;4790209;29;20502;-87
2022/06/07 05:26:46;;;;;;;21.98;15.18;;;;;;;11.99;100.00;98799.50;4816672;29;20069;-88
2022/06/07 05:29:38;;;;;;;20.80;14.60;;;;;;;11.99;100.00;98799.50;4824798;29;20034;-87
2022/06/07 05:32:04;;;;;;;18.60;13.20;;;;;;;12.17;100.00;98789.31;4808429;29;20501;-90
2022/06/07 05:34:34;;;;;;;25.35;13.10;;;;;;;12.19;100.00;98777.56;4794234;29;20126;-89
2022/06/07 05:36:59;;;;;;;21.08;14.25;;;;;;;12.31;100.00;98785.59;4789449;29;20062;-89
2022/06/07 05:39:29;;;;;;;23.15;14.15;;;;;;;12.47;100.00;98783.47;4804370;29;20135;-88
2022/06/07 05:41:56;;;;;;;18.52;13.40;;;;;;;12.62;100.00;98791.06;4803698;29;20416;-85
2022/06/07 05:44:23;;;;;;;21.02;14.10;;;;;;;12.76;100.00;98797.03;4806146;29;20370;-87
2022/06/07 05:46:49;;;;;;;17.83;13.02;;;;;;;12.68;100.00;98775.22;4823246;29;20030;-87
2022/06/07 05:49:16;;;;;;;17.63;13.00;;;;;;;12.83;100.00;98792.53;4804945;29;20038;-87
2022/06/07 05:51:42;;;;;;;18.70;12.40;;;;;;;12.82;100.00;98780.38;4791657;29;20123;-85
2022/06/07 05:54:11;;;;;;;18.48;12.55;;;;;;;12.96;100.00;98796.88;4790957;29;20113;-85
2022/06/07 05:56:37;;;;;;;15.80;11.23;;;;;;;12.91;100.00;98778.28;4805413;29;20042;-85
2022/06/07 05:59:05;;;;;;;18.60;13.02;;;;;;;13.04;100.00;98785.25;4821536;29;20034;-86
2022/06/07 06:01:32;;;;;;;19.80;13.65;;;;;;;13.10;100.00;98781.75;4820847;29;20049;-86
2022/06/07 06:03:58;;;;;;;16.73;11.23;;;;;;;13.07;100.00;98783.00;4805384;29;20103;-85
2022/06/07 06:06:25;;;;;;;19.77;11.48;;;;;;;13.14;100.00;98782.91;4805451;29;20043;-87
2022/06/07 06:11:36;;;;;;;18.52;11.68;;;;;;;13.28;100.00;98773.06;4805876;29;20039;-89
2022/06/07 06:14:03;;;;;;;18.95;11.95;;;;;;;13.38;100.00;98785.75;4819822;29;20414;-88
2022/06/07 06:16:30;;;;;;;17.50;11.73;;;;;;;13.27;100.00;98777.53;4789374;29;20031;-89
2022/06/07 06:18:58;;;;;;;18.40;10.57;;;;;;;13.41;100.00;98775.53;4822265;29;20045;-87
2022/06/07 06:21:27;;;;;;;15.85;9.88;;;;;;;13.43;100.00;98775.38;4804391;29;20046;-87
2022/06/07 06:23:53;;;;;;;12.68;9.40;;;;;;;13.66;100.00;98780.00;4804203;29;20529;-87
2022/06/07 06:26:20;;;;;;;16.42;10.88;;;;;;;13.67;100.00;98778.13;4807426;29;20069;-90
2022/06/07 06:28:46;;;;;;;13.60;9.65;;;;;;;13.75;100.00;98775.19;4810700;29;20042;-91
2022/06/07 06:31:13;;;;;;;12.98;9.50;;;;;;;13.78;100.00;98777.41;4822223;29;22295;-87
2022/06/07 06:33:40;;;;;;;13.50;8.85;;;;;;;13.90;100.00;98779.28;4820977;29;20026;-86
2022/06/07 06:36:11;;;;;;;16.83;9.75;;;;;;;13.97;100.00;98770.25;4805389;29;20030;-87
2022/06/07 06:38:37;;;;;;;12.70;9.48;;;;;;;14.21;100.00;98770.34;4805864;29;20038;-85
2022/06/07 06:41:10;;;;;;;13.52;9.50;;;;;;;14.39;100.00;98772.13;4823711;29;20512;-86
2022/06/07 06:43:37;;;;;;;12.75;9.80;;;;;;;14.38;100.00;98772.34;4805371;29;20083;-87
2022/06/07 06:46:11;;;;;;;13.00;9.68;;;;;;;14.50;100.00;98775.00;4822920;29;20465;-85
2022/06/07 06:48:37;;;;;;;13.90;9.57;;;;;;;14.52;100.00;98771.13;4789694;29;20385;-87
2022/06/07 06:51:06;;;;;;;13.98;9.13;;;;;;;14.69;100.00;98784.44;4807335;29;20031;-87
2022/06/07 06:53:33;;;;;;;16.05;9.02;;;;;;;14.74;100.00;98767.13;4808432;29;20133;-86
2022/06/07 06:55:59;;;;;;;9.73;7.88;;;;;;;14.73;100.00;98771.63;4807179;29;20520;-86
2022/06/07 06:58:27;;;;;;;11.18;8.77;;;;;;;14.93;100.00;98781.84;4807425;29;20042;-85
2022/06/07 07:01:03;;;;;;;9.43;7.28;;;;;;;15.00;100.00;98781.75;4808755;29;20054;-85
2022/06/07 07:03:30;;;;;;;9.88;7.50;;;;;;;14.94;100.00;98783.50;4808194;29;20505;-88
2022/06/07 07:05:56;;;;;;;9.07;7.60;;;;;;;15.10;100.00;98770.59;4795234;29;20574;-89
2022/06/07 07:08:26;;;;;;;12.52;8.80;;;;;;;15.26;100.00;98780.47;4826950;29;20038;-89
2022/06/07 07:11:13;;;;;;;13.18;8.35;;;;;;;15.45;100.00;98784.84;4796362;29;20549;-90
2022/06/07 07:13:39;;;;;;;11.35;8.75;;;;;;;15.57;100.00;98783.78;4825811;29;20130;-89
2022/06/07 07:16:10;;;;;;;11.15;8.57;;;;;;;15.62;100.00;98780.41;4811558;29;20034;-87
2022/06/07 07:18:37;;;;;;;12.40;9.10;;;;;;;15.68;100.00;98784.78;4792073;29;20038;-87
2022/06/07 07:21:07;;;;;;;12.88;8.27;;;;;;;15.77;100.00;98765.88;4792154;29;20066;-85
2022/06/07 07:23:35;;;;;;;11.48;8.32;;;;;;;15.90;100.00;98778.06;4805293;29;20058;-85
2022/06/07 07:26:06;;;;;;;10.73;7.30;;;;;;;15.96;100.00;98777.13;4794347;29;20046;-82
2022/06/07 07:28:34;;;;;;;11.30;7.05;;;;;;;15.96;100.00;98769.97;4825761;29;20041;-83
2022/06/07 07:31:06;;;;;;;7.95;6.10;;;;;;;16.05;100.00;98770.41;4825256;29;20046;-83
2022/06/07 07:33:35;;;;;;;7.28;5.55;;;;;;;16.12;100.00;98765.78;4823428;29;20125;-90
2022/06/07 07:36:14;;;;;;;8.48;6.55;;;;;;;16.21;100.00;98768.03;4792026;29;20061;-89
2022/06/07 07:43:14;;;;;;;10.27;6.90;;;;;;;16.37;100.00;98772.56;4839379;29;20083;-90
2022/06/07 07:46:08;;;;;;;7.55;5.93;;;;;;;16.49;100.00;98767.19;4804182;29;20110;-91
2022/06/07 07:48:49;;;;;;;8.57;6.75;;;;;;;16.48;100.00;98754.16;4804990;29;20081;-89
2022/06/07 07:51:24;;;;;;;9.95;6.18;;;;;;;16.89;100.00;98773.34;4800517;29;20039;-89
2022/06/07 07:54:09;;;;;;;10.07;6.45;;;;;;;16.79;100.00;98752.00;4799156;29;20086;-89
2022/06/07 07:56:36;;;;;;;8.77;6.70;;;;;;;16.93;100.00;98768.38;4796369;29;21498;-88
2022/06/07 07:59:07;;;;;;;8.55;6.70;;;;;;;16.89;100.00;98768.03;4794676;29;20034;-89
2022/06/07 08:01:34;;;;;;;10.07;6.32;;;;;;;16.70;100.00;98754.25;4810104;29;20035;-86
2022/06/07 08:04:01;;;;;;;9.23;7.05;;;;;;;16.54;100.00;98761.19;4808286;29;20505;-88
2022/06/07 08:06:29;;;;;;;9.32;7.15;;;;;;;16.32;100.00;98775.13;4792695;29;20101;-88
2022/06/07 08:08:58;;;;;;;7.82;6.25;;;;;;;16.12;100.00;98765.78;4808339;29;20144;-89
2022/06/07 08:11:28;;;;;;;8.75;7.00;;;;;;;16.13;100.00;98762.09;4807947;29;20363;-88
2022/06/07 08:13:55;;;;;;;10.32;6.97;;;;;;;16.23;100.00;98776.53;4823593;29;20054;-88
2022/06/07 08:16:22;;;;;;;11.07;7.93;;;;;;;16.07;100.00;98764.88;4787414;29;20034;-86
2022/06/07 08:18:48;;;;;;;10.77;6.78;;;;;;;16.17;100.00;98777.50;4813857;29;20143;-87
2022/06/07 08:21:20;;;;;;;12.40;7.05;;;;;;;16.16;100.00;98775.91;4796600;29;20043;-89
2022/06/07 08:23:47;;;;;;;8.63;6.38;;;;;;;16.16;100.00;98771.38;4796597;29;20040;-89
2022/06/07 08:26:13;;;;;;;12.40;7.00;;;;;;;16.09;100.00;98760.94;4812784;29;20101;-88
2022/06/07 08:39:05;;;;;;;7.50;6.70;;;;;;;16.23;99.39;98765.94;4811949;29;20038;-88
2022/06/07 08:41:33;;;;;;;7.38;6.22;;;;;;;16.38;100.00;98768.88;4788405;30;20043;-89
2022/06/07 08:44:23;;;;;;;8.30;6.00;;;;;;;16.42;99.16;98751.44;4776058;30;20086;-88
2022/06/07 08:46:52;;;;;;;10.32;6.38;;;;;;;16.53;98.56;98756.91;4773034;30;20054;-88
2022/06/07 08:49:22;;;;;;;6.63;5.88;;;;;;;16.61;97.44;98759.16;4777060;30;20050;-86
2022/06/07 08:52:17;;;;;;;7.47;6.05;;;;;;;16.74;98.10;98757.25;4792159;30;20043;-88
2022/06/07 08:54:44;;;;;;;8.55;6.53;;;;;;;16.77;98.81;98746.94;4778354;30;20134;-91
2022/06/07 08:57:20;;;;;;;8.15;5.75;;;;;;;16.88;98.25;98744.44;4778849;30;20498;-87
2022/06/07 08:59:52;;;;;;;9.95;6.05;;;;;;;16.98;97.62;98744.56;4790146;29;20042;-85
2022/06/07 09:02:33;;;;;;;8.10;6.47;;;;;;;17.04;94.74;98743.66;4790277;29;20054;-87
2022/06/07 09:05:09;;;;;;;9.00;6.43;;;;;;;17.05;97.60;98733.84;4814363;29;20513;-90
2022/06/07 09:07:41;;;;;;;8.50;5.95;;;;;;;17.09;95.39;98734.94;4800510;29;20102;-89
2022/06/07 09:13:21;;;;;;;9.25;6.00;;;;;;;17.09;92.59;98742.91;4813116;29;20043;-91
2022/06/07 09:15:55;;;;;;;9.50;6.50;;;;;;;17.56;93.70;98750.41;4798612;29;20050;-89
2022/06/07 09:18:33;;;;;;;9.10;6.22;;;;;;;17.32;94.16;98719.88;4802514;29;20046;-90
2022/06/07 09:21:16;;;;;;;10.40;6.70;;;;;;;17.50;95.67;98727.53;4776847;30;20133;-90
2022/06/07 09:23:56;;;;;;;8.50;6.60;;;;;;;17.68;97.09;98725.56;4777355;30;20043;-89
2022/06/07 09:26:44;;;;;;;11.23;7.38;;;;;;;18.12;95.90;98725.53;4776397;30;20051;-92
2022/06/07 09:29:21;;;;;;;14.30;7.65;;;;;;;17.77;96.70;98729.41;4778340;30;20039;-90
2022/06/07 09:31:49;;;;;;;11.93;7.82;;;;;;;18.03;93.65;98716.41;4778915;30;20521;-91
2022/06/07 09:34:25;;;;;;;11.23;6.85;;;;;;;18.35;94.70;98720.94;4778046;30;20079;-87
2022/06/07 09:37:02;;;;;;;10.73;7.10;;;;;;;18.12;91.19;98716.75;4778644;29;20049;-84
2022/06/07 09:39:40;;;;;;;11.18;6.50;;;;;;;18.13;93.79;98721.81;4797451;29;20035;-86
2022/06/07 09:42:20;;;;;;;7.55;6.03;;;;;;;18.30;97.51;98722.75;4806644;29;20073;-86
2022/06/07 09:45:17;;;;;;;11.90;7.25;;;;;;;18.47;93.81;98727.91;4792486;29;20083;-86
2022/06/07 09:47:43;;;;;;;10.68;7.35;;;;;;;18.46;93.92;98710.38;4796026;29;20099;-85
2022/06/07 09:50:20;;;;;;;10.00;6.50;;;;;;;18.80;91.83;98723.34;4793844;29;20043;-85
2022/06/07 09:52:52;;;;;;;14.30;7.20;;;;;;;18.83;89.65;98713.03;4797022;29;20505;-85
2022/06/07 09:55:34;;;;;;;12.82;6.72;;;;;;;18.82;88.04;98707.94;4778834;29;20097;-85
2022/06/07 09:58:00;;;;;;;10.27;6.78;;;;;;;18.74;86.84;98714.53;4814123;29;20058;-85
2022/06/07 10:00:33;;;;;;;15.43;7.63;;;;;;;18.62;89.74;98698.00;4793353;29;20491;-85
2022/06/07 10:03:19;;;;;;;9.43;7.03;;;;;;;18.50;87.96;98708.81;4798932;29;20470;-85
2022/06/07 10:06:14;;;;;;;9.07;6.78;;;;;;;18.56;86.60;98697.16;4794103;29;20376;-85
2022/06/07 10:08:45;;;;;;;11.07;7.78;;;;;;;18.77;87.56;98703.41;4788671;29;20081;-85
2022/06/07 10:11:39;;;;;;;8.82;7.25;;;;;;;18.97;87.73;98692.09;4807734;29;20116;-85
2022/06/07 10:14:25;;;;;;;9.80;7.55;;;;;;;19.16;87.66;98699.66;4792054;29;20054;-84
2022/06/07 10:17:13;;;;;;;11.55;7.30;;;;;;;19.46;87.45;98698.19;4795412;29;20055;-85
2022/06/07 10:19:39;;;;;;;8.63;6.90;;;;;;;19.55;85.34;98685.94;4809515;29;20039;-86
2022/06/07 10:22:07;;;;;;;8.02;6.40;;;;;;;20.03;85.64;98690.28;4776529;29;20039;-86
2022/06/07 10:24:48;;;;;;;6.53;5.50;;;;;;;20.10;84.28;98698.84;4796200;29;20038;-87
2022/06/07 10:27:23;;;;;;;7.45;6.15;;;;;;;20.32;83.59;98688.97;4813717;29;20063;-86
2022/06/07 10:30:15;;;;;;;8.15;6.85;;;;;;;20.34;81.96;98689.50;4799272;29;20042;-88
2022/06/07 10:33:02;;;;;;;6.50;5.93;;;;;;;20.69;82.54;98686.00;4798633;29;20038;-88
2022/06/07 10:35:31;;;;;;;9.10;6.50;;;;;;;20.97;82.60;98683.81;4791363;29;20035;-88
2022/06/07 10:38:28;;;;;;;11.75;7.95;;;;;;;21.22;83.86;98676.78;4792809;29;20038;-86
2022/06/07 10:41:23;;;;;;;13.23;8.07;;;;;;;21.60;85.06;98689.66;4809475;29;20050;-88
2022/06/07 10:43:52;;;;;;;11.57;8.02;;;;;;;22.14;84.72;98689.06;4773678;30;20506;-87
2022/06/07 10:46:21;;;;;;;10.30;8.40;;;;;;;22.49;84.31;98684.50;4791067;30;20043;-86
2022/06/07 10:49:14;;;;;;;11.25;7.75;;;;;;;22.93;82.38;98680.84;4792824;29;20042;-88
2022/06/07 10:54:37;;;;;;;9.50;8.05;;;;;;;23.49;79.68;98677.78;4816175;29;20049;-87
2022/06/07 10:57:14;;;;;;;12.38;8.88;;;;;;;23.84;79.42;98658.78;4781175;30;20112;-86
2022/06/07 10:59:43;;;;;;;9.60;7.53;;;;;;;24.14;80.15;98654.03;4806949;29;20039;-87
2022/06/07 11:02:18;;;;;;;9.63;7.80;;;;;;;24.72;77.73;98676.06;4818224;29;20125;-89
2022/06/07 11:10:45;;;;;;;13.10;8.88;;;;;;;25.43;71.83;98656.94;4798290;29;20047;-88
2022/06/07 11:13:22;;;;;;;11.55;7.88;;;;;;;25.84;71.61;98662.50;4783254;29;20054;-86
2022/06/07 11:16:10;;;;;;;10.43;7.68;;;;;;;26.09;69.36;98667.25;4782343;29;20387;-89
2022/06/07 11:18:41;;;;;;;9.00;7.75;;;;;;;25.99;66.56;98662.13;4796488;29;20501;-86
2022/06/07 11:21:07;;;;;;;8.32;7.22;;;;;;;26.05;67.36;98663.59;4800857;29;20126;-86
2022/06/07 11:23:46;;;;;;;8.30;7.38;;;;;;;26.33;66.49;98668.81;4780311;29;20122;-88
2022/06/07 11:26:15;;;;;;;10.15;7.22;;;;;;;26.53;65.45;98666.72;4816404;29;20091;-86
2022/06/07 11:28:41;;;;;;;8.00;7.30;;;;;;;26.20;64.96;98665.13;4800639;29;20451;-87
2022/06/07 11:31:41;;;;;;;8.98;7.25;;;;;;;25.78;62.79;98656.44;4797723;29;20074;-88
2022/06/07 11:34:23;;;;;;;11.10;6.95;;;;;;;25.95;65.03;98658.47;4816284;29;20053;-88
2022/06/07 11:37:02;;;;;;;6.82;6.20;;;;;;;26.04;65.08;98661.19;4807861;29;20042;-86
2022/06/07 11:39:49;;;;;;;8.20;6.70;;;;;;;25.77;64.44;98663.72;4812771;29;20030;-89
2022/06/07 11:42:16;;;;;;;8.63;7.05;;;;;;;25.61;61.82;98665.19;4784228;29;20042;-87
2022/06/07 11:44:41;;;;;;;8.57;7.65;;;;;;;25.41;62.58;98661.81;4799444;29;20187;-86
2022/06/07 11:47:07;;;;;;;8.00;7.18;;;;;;;25.59;65.29;98668.16;4808333;29;20508;-88
2022/06/07 11:49:40;;;;;;;7.68;6.95;;;;;;;25.52;63.69;98668.56;4777197;29;20039;-89
2022/06/07 11:52:11;;;;;;;8.82;7.30;;;;;;;25.44;62.94;98666.59;4792475;29;20640;-88
2022/06/07 11:54:47;;;;;;;9.23;6.90;;;;;;;25.44;64.94;98666.59;4775695;30;20053;-86
2022/06/07 11:57:32;;;;;;;9.32;7.32;;;;;;;25.59;64.79;98667.38;4776615;29;20050;-85
2022/06/07 12:00:38;;;;;;;7.82;6.80;;;;;;;25.66;64.38;98665.06;4792074;29;20100;-86
2022/06/07 12:03:08;;;;;;;10.80;7.10;;;;;;;26.06;62.98;98669.78;4788388;30;20039;-85
2022/06/07 12:06:03;;;;;;;7.93;6.65;;;;;;;25.90;62.93;98661.25;4794473;29;20065;-85
2022/06/07 12:08:47;;;;;;;8.25;7.55;;;;;;;25.11;62.85;98666.75;4775900;30;20078;-86
2022/06/07 12:11:22;;;;;;;8.52;6.47;;;;;;;25.33;63.46;98666.00;4804868;29;20034;-85